createdAt,value
2018-09-11T00:01:24.765Z,7.63
2018-09-11T00:03:52.959Z,11.43
2018-09-11T00:06:21.044Z,13.67
2018-09-11T00:08:49.312Z,11.80
2018-09-11T00:11:17.486Z,11.43
2018-09-11T00:13:45.572Z,9.70
2018-09-11T00:16:13.724Z,9.87
2018-09-11T00:18:41.807Z,11.03
2018-09-11T00:21:09.903Z,10.40
2018-09-11T00:23:38.057Z,10.60
2018-09-11T00:26:06.125Z,8.00
2018-09-11T00:28:34.145Z,10.00
2018-09-11T00:31:02.169Z,8.43
2018-09-11T00:33:30.463Z,6.17
2018-09-11T00:35:58.480Z,8.53
2018-09-11T00:38:26.745Z,10.60
2018-09-11T00:40:54.813Z,15.93
2018-09-11T00:43:22.831Z,10.07
2018-09-11T00:45:51.149Z,8.70
2018-09-11T00:48:19.234Z,9.97
2018-09-11T00:50:47.811Z,11.80
2018-09-11T00:53:15.975Z,10.63
2018-09-11T00:55:44.008Z,12.73
2018-09-11T00:58:12.119Z,12.93
2018-09-11T01:00:40.146Z,9.80
2018-09-11T01:03:08.276Z,10.80
2018-09-11T01:05:36.340Z,18.57
2018-09-11T01:08:04.373Z,12.10
2018-09-11T01:10:32.404Z,14.00
2018-09-11T01:13:00.460Z,11.13
2018-09-11T01:15:28.490Z,16.40
2018-09-11T01:17:56.580Z,11.90
2018-09-11T01:20:24.606Z,10.77
2018-09-11T01:22:52.640Z,11.87
2018-09-11T01:25:20.675Z,15.20
2018-09-11T01:27:48.711Z,13.33
2018-09-11T01:30:19.407Z,8.57
2018-09-11T01:32:47.501Z,15.63
2018-09-11T01:35:15.691Z,12.20
2018-09-11T01:37:43.766Z,11.57
2018-09-11T01:40:11.866Z,11.70
2018-09-11T01:42:39.928Z,14.70
2018-09-11T01:45:07.995Z,12.77
2018-09-11T01:47:36.077Z,10.90
2018-09-11T01:50:04.259Z,15.47
2018-09-11T01:52:32.318Z,13.87
2018-09-11T01:55:00.396Z,16.20
2018-09-11T01:57:28.484Z,12.30
2018-09-11T01:59:56.564Z,14.40
2018-09-11T02:02:24.723Z,16.93
2018-09-11T02:04:53.292Z,14.87
2018-09-11T02:07:21.367Z,12.30
2018-09-11T02:09:49.435Z,11.93
2018-09-11T02:12:17.449Z,14.07
2018-09-11T02:14:45.591Z,13.03
2018-09-11T02:17:13.621Z,17.30
2018-09-11T02:19:41.640Z,13.90
2018-09-11T02:22:09.698Z,16.70
2018-09-11T02:24:37.762Z,14.30
2018-09-11T02:27:05.826Z,12.47
2018-09-11T02:29:33.906Z,16.97
2018-09-11T02:32:01.930Z,15.57
2018-09-11T02:34:29.959Z,15.93
2018-09-11T02:36:57.986Z,14.67
2018-09-11T02:39:26.036Z,20.90
2018-09-11T02:41:54.052Z,18.67
2018-09-11T02:44:22.075Z,20.57
2018-09-11T02:46:50.188Z,16.43
2018-09-11T02:49:18.219Z,18.30
2018-09-11T02:51:46.287Z,17.63
2018-09-11T02:54:14.414Z,15.00
2018-09-11T02:56:42.446Z,16.40
2018-09-11T02:59:10.567Z,20.27
2018-09-11T03:01:38.592Z,20.13
2018-09-11T03:04:06.724Z,14.73
2018-09-11T03:06:34.782Z,17.00
2018-09-11T03:09:03.059Z,19.73
2018-09-11T03:11:31.079Z,14.53
2018-09-11T03:13:59.097Z,23.70
2018-09-11T03:16:27.162Z,17.90
2018-09-11T03:18:55.207Z,20.40
2018-09-11T03:21:23.307Z,16.60
2018-09-11T03:23:51.382Z,22.80
2018-09-11T03:26:19.453Z,18.23
2018-09-11T03:28:47.519Z,22.23
2018-09-11T03:31:15.548Z,18.13
2018-09-11T03:33:43.574Z,21.17
2018-09-11T03:36:11.646Z,17.90
2018-09-11T03:38:39.683Z,17.40
2018-09-11T03:41:07.775Z,19.03
2018-09-11T03:43:35.795Z,16.37
2018-09-11T03:46:03.844Z,17.47
2018-09-11T03:48:31.894Z,16.13
2018-09-11T03:51:00.020Z,15.90
2018-09-11T03:53:28.155Z,20.30
2018-09-11T03:55:56.171Z,16.67
2018-09-11T03:58:24.196Z,20.37
2018-09-11T04:00:52.327Z,14.93
2018-09-11T04:03:20.355Z,18.80
2018-09-11T04:05:48.385Z,16.40
2018-09-11T04:08:16.406Z,17.13
2018-09-11T04:10:44.474Z,18.63
2018-09-11T04:13:12.526Z,17.67
2018-09-11T04:15:40.547Z,18.23
2018-09-11T04:18:08.698Z,19.03
2018-09-11T04:20:36.758Z,20.33
2018-09-11T04:23:04.836Z,15.07
2018-09-11T04:25:32.904Z,19.10
2018-09-11T04:28:00.938Z,21.60
2018-09-11T04:30:28.974Z,19.43
2018-09-11T04:32:57.011Z,13.07
2018-09-11T04:35:25.036Z,18.70
2018-09-11T04:37:53.161Z,15.47
2018-09-11T04:40:22.159Z,14.37
2018-09-11T04:42:50.252Z,19.90
2018-09-11T04:45:18.247Z,14.03
2018-09-11T04:47:46.275Z,19.13
2018-09-11T04:50:14.302Z,22.17
2018-09-11T04:52:42.395Z,13.13
2018-09-11T04:55:10.423Z,13.70
2018-09-11T04:57:38.486Z,18.90
2018-09-11T05:00:06.678Z,15.60
2018-09-11T05:02:35.256Z,11.90
2018-09-11T05:05:03.279Z,19.33
2018-09-11T05:07:31.347Z,13.00
2018-09-11T05:09:59.410Z,17.43
2018-09-11T05:12:27.487Z,17.83
2018-09-11T05:14:55.563Z,14.77
2018-09-11T05:17:23.616Z,11.00
2018-09-11T05:19:51.645Z,13.57
2018-09-11T05:22:19.667Z,12.20
2018-09-11T05:24:47.739Z,14.60
2018-09-11T05:27:15.855Z,16.17
2018-09-11T05:29:43.926Z,19.87
2018-09-11T05:32:11.935Z,11.37
2018-09-11T05:34:40.147Z,21.13
2018-09-11T05:37:08.247Z,9.30
2018-09-11T05:39:36.296Z,14.33
2018-09-11T05:42:04.394Z,13.67
2018-09-11T05:44:32.463Z,12.47
2018-09-11T05:47:00.528Z,15.27
2018-09-11T05:49:28.587Z,15.37
2018-09-11T05:51:56.661Z,10.83
2018-09-11T05:54:24.702Z,12.90
2018-09-11T05:56:52.748Z,12.10
2018-09-11T05:59:20.782Z,14.67
2018-09-11T06:01:48.827Z,13.27
2018-09-11T06:04:16.850Z,12.43
2018-09-11T06:06:44.978Z,11.53
2018-09-11T06:09:13.866Z,11.47
2018-09-11T06:11:42.113Z,11.57
2018-09-11T06:14:10.319Z,15.73
2018-09-11T06:16:38.419Z,11.83
2018-09-11T06:19:06.662Z,14.30
2018-09-11T06:21:34.714Z,14.00
2018-09-11T06:24:02.744Z,13.20
2018-09-11T06:26:30.796Z,16.90
2018-09-11T06:28:59.207Z,14.27
2018-09-11T06:31:27.192Z,15.67
2018-09-11T06:33:55.216Z,12.50
2018-09-11T06:36:23.250Z,11.53
2018-09-11T06:38:51.355Z,14.67
2018-09-11T06:41:19.393Z,9.53
2018-09-11T06:43:47.410Z,11.67
2018-09-11T06:46:15.445Z,10.90
2018-09-11T06:48:43.496Z,16.60
2018-09-11T06:51:11.511Z,11.33
2018-09-11T06:53:39.578Z,11.50
2018-09-11T06:56:07.628Z,12.57
2018-09-11T06:58:35.649Z,13.90
2018-09-11T07:01:03.670Z,12.27
2018-09-11T07:03:31.854Z,10.13
2018-09-11T07:06:00.034Z,11.17
2018-09-11T07:08:28.195Z,9.77
2018-09-11T07:10:56.271Z,10.63
2018-09-11T07:13:24.258Z,8.00
2018-09-11T07:15:52.377Z,9.53
2018-09-11T07:18:20.418Z,12.77
2018-09-11T07:20:48.562Z,11.67
2018-09-11T07:23:16.582Z,10.33
2018-09-11T07:25:44.719Z,11.43
2018-09-11T07:28:12.754Z,7.67
2018-09-11T07:30:40.792Z,10.33
2018-09-11T07:33:08.936Z,8.47
2018-09-11T07:35:36.959Z,10.03
2018-09-11T07:38:05.019Z,11.70
2018-09-11T07:40:33.165Z,8.03
2018-09-11T07:43:01.311Z,9.97
2018-09-11T07:45:29.483Z,10.23
2018-09-11T07:47:57.491Z,10.40
2018-09-11T07:50:25.647Z,16.97
2018-09-11T07:52:53.718Z,10.97
2018-09-11T07:55:21.774Z,9.70
2018-09-11T07:57:49.862Z,11.10
2018-09-11T08:00:17.906Z,8.50
2018-09-11T08:02:45.986Z,8.27
2018-09-11T08:05:14.099Z,8.37
2018-09-11T08:07:42.107Z,8.57
2018-09-11T08:10:10.139Z,7.33
2018-09-11T08:12:38.176Z,7.83
2018-09-11T08:15:06.596Z,9.03
2018-09-11T08:17:34.614Z,7.40
2018-09-11T08:20:02.688Z,10.33
2018-09-11T08:22:30.695Z,9.97
2018-09-11T08:24:58.746Z,8.20
2018-09-11T08:27:26.797Z,10.13
2018-09-11T08:29:55.099Z,11.20
2018-09-11T08:32:23.134Z,10.27
2018-09-11T08:34:51.145Z,11.80
2018-09-11T08:37:19.159Z,7.33
2018-09-11T08:39:47.289Z,8.30
2018-09-11T08:42:15.307Z,9.10
2018-09-11T08:44:43.407Z,9.87
2018-09-11T08:47:11.440Z,9.43
2018-09-11T08:49:39.467Z,8.90
2018-09-11T08:52:07.545Z,10.00
2018-09-11T08:54:36.007Z,9.80
2018-09-11T08:57:04.076Z,7.47
2018-09-11T08:59:32.132Z,7.80
2018-09-11T09:02:00.188Z,8.80
2018-09-11T09:04:28.236Z,9.73
2018-09-11T09:06:56.284Z,13.47
2018-09-11T09:09:24.330Z,8.97
2018-09-11T09:11:52.366Z,9.60
2018-09-11T09:14:20.469Z,8.33
2018-09-11T09:16:48.499Z,11.17
2018-09-11T09:19:16.602Z,9.87
2018-09-11T09:21:44.686Z,11.03
2018-09-11T09:24:12.795Z,7.80
2018-09-11T09:26:40.823Z,12.07
2018-09-11T09:29:08.895Z,8.47
2018-09-11T09:31:36.941Z,13.80
2018-09-11T09:34:05.039Z,8.77
2018-09-11T09:36:33.109Z,8.47
2018-09-11T09:39:01.112Z,9.77
2018-09-11T09:41:29.157Z,11.30
2018-09-11T09:43:57.266Z,11.00
2018-09-11T09:46:25.286Z,7.83
2018-09-11T09:48:53.792Z,10.10
2018-09-11T09:51:21.846Z,8.13
2018-09-11T09:53:49.879Z,8.23
2018-09-11T09:56:17.995Z,9.83
2018-09-11T09:58:46.060Z,12.60
2018-09-11T10:01:20.597Z,6.13
2018-09-11T10:03:48.616Z,6.50
2018-09-11T10:06:16.643Z,7.43
2018-09-11T10:08:44.702Z,7.60
2018-09-11T10:11:12.736Z,9.67
2018-09-11T10:13:40.842Z,9.17
2018-09-11T10:16:08.907Z,8.67
2018-09-11T10:18:37.046Z,10.90
2018-09-11T10:21:05.160Z,6.90
2018-09-11T10:23:33.190Z,10.57
2018-09-11T10:26:01.307Z,6.73
2018-09-11T10:28:29.344Z,11.03
2018-09-11T10:30:57.363Z,8.40
2018-09-11T10:33:25.413Z,9.47
2018-09-11T10:35:53.487Z,7.87
2018-09-11T10:38:21.543Z,11.73
2018-09-11T10:40:49.629Z,7.53
2018-09-11T10:43:17.652Z,8.83
2018-09-11T10:45:45.674Z,6.87
2018-09-11T10:48:13.735Z,6.50
2018-09-11T10:50:41.803Z,9.60
2018-09-11T10:53:09.826Z,5.60
2018-09-11T10:55:37.939Z,5.50
2018-09-11T10:58:05.974Z,8.13
2018-09-11T11:00:34.053Z,7.97
2018-09-11T11:03:02.504Z,5.03
2018-09-11T11:05:30.530Z,5.73
2018-09-11T11:07:58.554Z,6.13
2018-09-11T11:10:26.626Z,6.40
2018-09-11T11:12:54.661Z,8.27
2018-09-11T11:15:22.670Z,7.33
2018-09-11T11:17:50.703Z,8.23
2018-09-11T11:20:18.747Z,7.17
2018-09-11T11:22:46.768Z,11.53
2018-09-11T11:25:14.815Z,8.57
2018-09-11T11:27:42.871Z,9.93
2018-09-11T11:30:10.972Z,8.10
2018-09-11T11:32:39.150Z,7.10
2018-09-11T11:35:07.191Z,9.33
2018-09-11T11:37:35.279Z,8.60
2018-09-11T11:40:03.376Z,8.90
2018-09-11T11:42:31.419Z,10.67
2018-09-11T11:44:59.499Z,10.23
2018-09-11T11:47:27.583Z,6.47
2018-09-11T11:49:55.688Z,10.37
2018-09-11T11:52:23.710Z,7.67
2018-09-11T11:54:51.774Z,12.97
2018-09-11T11:57:19.851Z,8.43
2018-09-11T11:59:47.935Z,8.53
2018-09-11T12:02:16.031Z,14.17
2018-09-11T12:04:44.088Z,11.00
2018-09-11T12:07:12.144Z,6.47
2018-09-11T12:09:40.213Z,9.67
2018-09-11T12:12:08.299Z,7.20
2018-09-11T12:14:36.341Z,10.33
2018-09-11T12:17:04.458Z,8.03
2018-09-11T12:19:32.444Z,9.77
2018-09-11T12:22:00.578Z,10.20
2018-09-11T12:24:28.663Z,10.57
2018-09-11T12:26:56.691Z,11.67
2018-09-11T12:29:24.729Z,10.40
2018-09-11T12:31:52.813Z,11.63
2018-09-11T12:34:20.909Z,6.83
2018-09-11T12:36:48.955Z,10.50
2018-09-11T12:39:16.975Z,9.80
2018-09-11T12:41:45.042Z,7.40
2018-09-11T12:44:13.095Z,13.10
2018-09-11T12:46:41.343Z,10.23
2018-09-11T12:49:10.157Z,10.87
2018-09-11T12:51:38.280Z,9.43
2018-09-11T12:54:06.355Z,11.00
2018-09-11T12:56:34.399Z,9.87
2018-09-11T12:59:02.441Z,14.83
2018-09-11T13:01:30.549Z,10.17
2018-09-11T13:03:58.576Z,8.93
2018-09-11T13:06:26.624Z,13.30
2018-09-11T13:08:54.674Z,10.03
2018-09-11T13:11:22.726Z,8.70
2018-09-11T13:13:50.978Z,17.30
2018-09-11T13:16:19.013Z,12.90
2018-09-11T13:18:47.178Z,11.00
2018-09-11T13:21:15.336Z,13.67
2018-09-11T13:23:43.456Z,12.63
2018-09-11T13:26:11.573Z,12.98
2018-09-11T13:28:39.619Z,14.57
2018-09-11T13:31:07.711Z,17.67
2018-09-11T13:33:36.016Z,11.90
2018-09-11T13:36:04.172Z,16.03
2018-09-11T13:38:32.243Z,18.20
2018-09-11T13:41:00.517Z,11.47
2018-09-11T13:43:28.559Z,13.53
2018-09-11T13:45:56.591Z,19.13
2018-09-11T13:48:24.630Z,12.17
2018-09-11T13:50:52.712Z,17.00
2018-09-11T13:53:21.374Z,15.43
2018-09-11T13:55:49.400Z,13.73
2018-09-11T13:58:17.448Z,15.53
2018-09-11T14:00:45.594Z,15.97
2018-09-11T14:03:13.619Z,16.53
2018-09-11T14:05:41.752Z,19.10
2018-09-11T14:08:10.419Z,19.37
2018-09-11T14:10:38.522Z,16.17
2018-09-11T14:13:06.581Z,14.43
2018-09-11T14:15:34.598Z,17.13
2018-09-11T14:18:02.606Z,15.70
2018-09-11T14:20:30.737Z,14.53
2018-09-11T14:22:58.769Z,16.03
2018-09-11T14:25:27.205Z,13.90
2018-09-11T14:27:55.230Z,17.13
2018-09-11T14:30:23.252Z,17.60
2018-09-11T14:32:51.295Z,18.77
2018-09-11T14:35:19.371Z,12.00
2018-09-11T14:37:47.495Z,18.13
2018-09-11T14:40:15.522Z,16.73
2018-09-11T14:42:43.541Z,14.57
2018-09-11T14:45:11.575Z,14.20
2018-09-11T14:47:41.560Z,10.20
2018-09-11T14:50:09.809Z,13.27
2018-09-11T14:52:38.353Z,19.43
2018-09-11T14:55:06.659Z,18.63
2018-09-11T14:57:35.081Z,15.53
2018-09-11T15:00:03.522Z,18.37
2018-09-11T15:02:31.611Z,23.33
2018-09-11T15:04:59.695Z,13.83
2018-09-11T15:07:27.728Z,15.40
2018-09-11T15:09:55.983Z,19.27
2018-09-11T15:12:24.035Z,16.97
2018-09-11T15:14:52.299Z,20.43
2018-09-11T15:17:20.376Z,12.50
2018-09-11T15:19:48.439Z,19.93
2018-09-11T15:22:16.984Z,15.00
2018-09-11T15:24:45.071Z,16.87
2018-09-11T15:27:13.148Z,17.87
2018-09-11T15:29:41.299Z,19.00
2018-09-11T15:32:09.386Z,16.77
2018-09-11T15:34:37.593Z,17.63
2018-09-11T15:37:05.876Z,15.43
2018-09-11T15:39:33.951Z,15.37
2018-09-11T15:42:02.065Z,18.77
2018-09-11T15:44:30.185Z,15.90
2018-09-11T15:46:58.927Z,17.27
2018-09-11T15:49:28.846Z,17.10
2018-09-11T15:51:56.899Z,17.63
2018-09-11T15:54:24.947Z,16.73
2018-09-11T15:56:52.970Z,20.27
2018-09-11T15:59:21.047Z,18.57
2018-09-11T16:01:49.119Z,18.70
2018-09-11T16:04:17.189Z,19.23
2018-09-11T16:06:45.258Z,19.63
2018-09-11T16:09:13.503Z,14.67
2018-09-11T16:11:41.795Z,18.70
2018-09-11T16:14:10.706Z,14.90
2018-09-11T16:16:38.726Z,21.27
2018-09-11T16:19:06.930Z,18.70
2018-09-11T16:21:34.958Z,17.37
2018-09-11T16:24:03.062Z,17.63
2018-09-11T16:26:31.775Z,18.23
2018-09-11T16:28:59.971Z,18.07
2018-09-11T16:31:28.415Z,16.20
2018-09-11T16:33:56.455Z,18.30
2018-09-11T16:36:24.562Z,13.13
2018-09-11T16:38:53.327Z,14.00
2018-09-11T16:41:21.346Z,18.03
2018-09-11T16:43:49.403Z,20.37
2018-09-11T16:46:17.435Z,18.63
2018-09-11T16:48:45.710Z,17.17
2018-09-11T16:51:13.759Z,15.33
2018-09-11T16:53:41.889Z,16.53
2018-09-11T16:56:09.919Z,14.53
2018-09-11T16:58:38.016Z,15.20
2018-09-11T17:01:06.036Z,14.00
2018-09-11T17:03:34.082Z,12.47
2018-09-11T17:06:02.250Z,13.03
2018-09-11T17:08:30.315Z,19.17
2018-09-11T17:10:58.393Z,16.13
2018-09-11T17:13:26.475Z,12.07
2018-09-11T17:15:54.495Z,13.27
2018-09-11T17:18:22.520Z,12.63
2018-09-11T17:20:50.576Z,12.30
2018-09-11T17:23:18.606Z,15.87
2018-09-11T17:25:46.654Z,11.33
2018-09-11T17:28:14.785Z,11.80
2018-09-11T17:30:42.853Z,12.50
2018-09-11T17:33:10.879Z,12.53
2018-09-11T17:35:38.940Z,12.23
2018-09-11T17:38:06.971Z,15.30
2018-09-11T17:40:35.037Z,16.63
2018-09-11T17:43:03.076Z,14.83
2018-09-11T17:45:31.119Z,14.33
2018-09-11T17:47:59.154Z,13.03
2018-09-11T17:50:27.737Z,16.27
2018-09-11T17:52:55.815Z,11.27
2018-09-11T17:55:23.942Z,17.33
2018-09-11T17:57:51.946Z,14.63
2018-09-11T18:00:20.129Z,11.83
2018-09-11T18:02:48.274Z,15.43
2018-09-11T18:05:16.258Z,15.90
2018-09-11T18:07:44.364Z,12.97
2018-09-11T18:10:12.423Z,14.17
2018-09-11T18:12:40.485Z,18.83
2018-09-11T18:15:08.517Z,17.73
2018-09-11T18:17:36.624Z,21.03
2018-09-11T18:20:04.715Z,19.43
2018-09-11T18:22:33.077Z,21.87
2018-09-11T18:25:01.174Z,20.77
2018-09-11T18:27:29.559Z,16.43
2018-09-11T18:29:57.706Z,25.30
2018-09-11T18:32:25.837Z,14.20
2018-09-11T18:34:54.123Z,18.27
2018-09-11T18:37:22.252Z,21.83
2018-09-11T18:39:50.245Z,24.30
2018-09-11T18:42:19.395Z,22.03
2018-09-11T18:44:47.619Z,18.70
2018-09-11T18:47:15.639Z,22.57
2018-09-11T18:49:43.672Z,27.27
2018-09-11T18:52:11.822Z,16.37
2018-09-11T18:54:39.863Z,19.57
2018-09-11T18:57:07.936Z,24.90
2018-09-11T18:59:36.038Z,18.77
2018-09-11T19:02:04.079Z,18.23
2018-09-11T19:04:32.157Z,19.37
2018-09-11T19:07:00.232Z,19.87
2018-09-11T19:09:28.564Z,17.77
2018-09-11T19:11:56.659Z,14.63
2018-09-11T19:14:24.742Z,15.53
2018-09-11T19:16:52.779Z,18.00
2018-09-11T19:19:20.794Z,15.97
2018-09-11T19:21:48.876Z,19.57
2018-09-11T19:24:16.965Z,16.40
2018-09-11T19:26:45.125Z,14.13
2018-09-11T19:29:13.217Z,15.87
2018-09-11T19:31:41.360Z,15.77
2018-09-11T19:34:09.508Z,19.17
2018-09-11T19:36:38.343Z,12.80
2018-09-11T19:39:06.843Z,16.03
2018-09-11T19:41:35.163Z,18.80
2018-09-11T19:44:03.460Z,18.33
2018-09-11T19:46:31.568Z,18.17
2018-09-11T19:48:59.996Z,18.80
2018-09-11T19:51:28.062Z,18.30
2018-09-11T19:53:56.115Z,19.30
2018-09-11T19:56:24.180Z,15.40
2018-09-11T19:58:52.537Z,17.43
2018-09-11T20:01:20.553Z,16.67
2018-09-11T20:03:48.811Z,17.57
2018-09-11T20:06:16.903Z,19.93
2018-09-11T20:08:44.974Z,16.23
2018-09-11T20:11:13.030Z,20.23
2018-09-11T20:13:41.154Z,17.63
2018-09-11T20:16:09.280Z,15.77
2018-09-11T20:18:37.396Z,17.93
2018-09-11T20:21:05.442Z,18.20
2018-09-11T20:23:33.492Z,20.93
2018-09-11T20:26:01.539Z,17.63
2018-09-11T20:28:29.640Z,21.07
2018-09-11T20:30:57.723Z,20.73
2018-09-11T20:33:25.794Z,22.57
2018-09-11T20:35:53.890Z,19.40
2018-09-11T20:38:21.968Z,18.80
2018-09-11T20:40:50.003Z,16.10
2018-09-11T20:43:18.088Z,15.80
2018-09-11T20:45:46.145Z,19.50
2018-09-11T20:48:14.328Z,18.97
2018-09-11T20:50:42.390Z,17.00
2018-09-11T20:53:10.423Z,17.87
2018-09-11T20:55:38.552Z,21.30
2018-09-11T20:58:06.590Z,14.93
2018-09-11T21:00:34.648Z,20.27
2018-09-11T21:03:02.691Z,17.73
2018-09-11T21:05:30.820Z,20.73
2018-09-11T21:07:58.998Z,19.73
2018-09-11T21:10:27.079Z,20.43
2018-09-11T21:12:55.128Z,15.03
2018-09-11T21:15:23.216Z,23.30
2018-09-11T21:17:51.296Z,17.90
2018-09-11T21:20:19.327Z,16.77
2018-09-11T21:22:47.451Z,15.13
2018-09-11T21:25:15.588Z,18.17
2018-09-11T21:27:43.630Z,17.10
2018-09-11T21:30:11.670Z,17.10
2018-09-11T21:32:39.702Z,16.63
2018-09-11T21:35:07.753Z,14.77
2018-09-11T21:37:35.816Z,16.83
2018-09-11T21:40:03.955Z,15.00
2018-09-11T21:42:31.975Z,14.30
2018-09-11T21:45:00.031Z,15.07
2018-09-11T21:47:28.079Z,16.17
2018-09-11T21:49:56.108Z,20.33
2018-09-11T21:52:24.186Z,17.50
2018-09-11T21:54:52.255Z,13.80
2018-09-11T21:57:20.295Z,17.70
2018-09-11T21:59:48.318Z,16.13
2018-09-11T22:02:16.461Z,13.37
2018-09-11T22:04:44.645Z,11.47
2018-09-11T22:07:12.723Z,12.77
2018-09-11T22:09:40.784Z,15.27
2018-09-11T22:12:08.908Z,17.30
2018-09-11T22:14:36.953Z,23.57
2018-09-11T22:17:04.987Z,24.63
2018-09-11T22:19:33.050Z,16.20
2018-09-11T22:22:01.086Z,22.20
2018-09-11T22:24:29.128Z,21.90
2018-09-11T22:26:57.204Z,16.40
2018-09-11T22:29:25.261Z,23.20
2018-09-11T22:31:53.359Z,17.97
2018-09-11T22:34:21.393Z,20.97
2018-09-11T22:36:49.427Z,27.23
2018-09-11T22:39:17.455Z,21.13
2018-09-11T22:41:45.548Z,24.83
2018-09-11T22:44:13.588Z,22.03
2018-09-11T22:46:41.643Z,27.73
2018-09-11T22:49:09.731Z,20.07
2018-09-11T22:51:37.814Z,23.27
2018-09-11T22:54:06.083Z,24.70
2018-09-11T22:56:34.146Z,23.07
2018-09-11T22:59:02.180Z,20.50
2018-09-11T23:01:30.198Z,21.83
2018-09-11T23:03:58.235Z,18.07
2018-09-11T23:06:26.264Z,22.30
2018-09-11T23:08:54.303Z,24.47
2018-09-11T23:11:22.330Z,17.77
2018-09-11T23:13:50.386Z,21.90
2018-09-11T23:16:18.415Z,17.67
2018-09-11T23:18:46.620Z,22.40
2018-09-11T23:21:14.650Z,18.43
2018-09-11T23:23:42.743Z,22.33
2018-09-11T23:26:10.815Z,20.00
2018-09-11T23:28:38.983Z,21.83
2018-09-11T23:31:07.054Z,24.07
2018-09-11T23:33:35.128Z,18.53
2018-09-11T23:36:03.196Z,20.53
2018-09-11T23:38:31.263Z,25.67
2018-09-11T23:40:59.295Z,22.17
2018-09-11T23:43:27.319Z,19.80
2018-09-11T23:45:55.351Z,17.70
2018-09-11T23:48:23.406Z,23.40
2018-09-11T23:50:51.449Z,22.67
2018-09-11T23:53:19.476Z,21.63
2018-09-11T23:55:47.550Z,19.73
2018-09-11T23:58:15.680Z,18.40
